createdAt,value
2018-03-03T00:00:15.111Z,988.16
2018-03-03T00:00:55.546Z,988.1
2018-03-03T00:01:35.931Z,988.12
2018-03-03T00:02:16.291Z,988.15
2018-03-03T00:02:56.701Z,988.19
2018-03-03T00:03:37.183Z,988.19
2018-03-03T00:04:17.478Z,988.16
2018-03-03T00:04:57.887Z,988.1
2018-03-03T00:05:38.226Z,988.08
2018-03-03T00:06:18.696Z,988.04
2018-03-03T00:06:59.028Z,988.07
2018-03-03T00:07:39.407Z,988.02
2018-03-03T00:08:19.825Z,988.05
2018-03-03T00:09:00.536Z,988.05
2018-03-03T00:09:40.786Z,988.03
2018-03-03T00:10:21.240Z,988.04
2018-03-03T00:11:01.579Z,988.04
2018-03-03T00:11:41.982Z,988.04
2018-03-03T00:12:22.388Z,988.06
2018-03-03T00:13:02.829Z,988.08
2018-03-03T00:13:43.157Z,988.08
2018-03-03T00:14:23.530Z,988.08
2018-03-03T00:15:04.042Z,988.05
2018-03-03T00:15:44.430Z,988.13
2018-03-03T00:16:24.758Z,988.12
2018-03-03T00:17:05.245Z,988.1
2018-03-03T00:17:45.578Z,988.07
2018-03-03T00:18:25.991Z,988
2018-03-03T00:19:06.424Z,988.06
2018-03-03T00:19:46.709Z,988.04
2018-03-03T00:20:27.142Z,988.02
2018-03-03T00:21:07.530Z,988.07
2018-03-03T00:21:48.104Z,988.05
2018-03-03T00:22:28.339Z,988.03
2018-03-03T00:23:08.756Z,988.07
2018-03-03T00:23:49.068Z,988.05
2018-03-03T00:24:29.501Z,988.04
2018-03-03T00:25:09.903Z,987.99
2018-03-03T00:25:50.340Z,988.01
2018-03-03T00:26:30.705Z,988.05
2018-03-03T00:27:11.108Z,988.04
2018-03-03T00:27:51.466Z,988.06
2018-03-03T00:28:31.860Z,988.05
2018-03-03T00:29:12.326Z,988.03
2018-03-03T00:29:52.708Z,988.05
2018-03-03T00:30:33.367Z,988.1
2018-03-03T00:31:13.586Z,988.09
2018-03-03T00:31:54.000Z,988.09
2018-03-03T00:32:34.359Z,988.09
2018-03-03T00:33:14.759Z,988.13
2018-03-03T00:33:55.187Z,988.08
2018-03-03T00:34:35.644Z,988.06
2018-03-03T00:35:16.247Z,988.02
2018-03-03T00:35:56.507Z,988.03
2018-03-03T00:36:36.912Z,988.01
2018-03-03T00:37:17.323Z,988.07
2018-03-03T00:37:57.727Z,988.08
2018-03-03T00:38:38.178Z,988.04
2018-03-03T00:39:18.500Z,988.07
2018-03-03T00:39:58.978Z,988.04
2018-03-03T00:40:39.337Z,988.05
2018-03-03T00:41:19.636Z,988.09
2018-03-03T00:42:00.251Z,988.12
2018-03-03T00:42:40.537Z,988.08
2018-03-03T00:43:20.979Z,988.08
2018-03-03T00:44:01.275Z,988.07
2018-03-03T00:44:41.710Z,988.04
2018-03-03T00:45:22.057Z,988.09
2018-03-03T00:46:02.696Z,988.04
2018-03-03T00:46:42.859Z,988.08
2018-03-03T00:47:23.291Z,988.03
2018-03-03T00:48:03.724Z,988
2018-03-03T00:48:44.090Z,987.97
2018-03-03T00:49:24.481Z,988
2018-03-03T00:50:04.859Z,987.95
2018-03-03T00:50:45.284Z,987.98
2018-03-03T00:51:25.737Z,987.96
2018-03-03T00:52:06.063Z,987.96
2018-03-03T00:52:46.432Z,987.97
2018-03-03T00:53:26.866Z,987.98
2018-03-03T00:54:07.241Z,987.95
2018-03-03T00:54:47.808Z,988.02
2018-03-03T00:55:28.015Z,987.99
2018-03-03T00:56:08.460Z,987.97
2018-03-03T00:56:49.085Z,988.01
2018-03-03T00:57:29.192Z,987.97
2018-03-03T00:58:09.816Z,987.96
2018-03-03T00:58:50.164Z,987.98
2018-03-03T00:59:30.437Z,988
2018-03-03T01:00:10.842Z,987.96
2018-03-03T01:00:51.343Z,987.92
2018-03-03T01:01:31.587Z,987.92
2018-03-03T01:02:12.054Z,987.9
2018-03-03T01:02:52.369Z,987.85
2018-03-03T01:03:32.859Z,987.88
2018-03-03T01:04:13.300Z,987.88
2018-03-03T01:04:53.622Z,987.87
2018-03-03T01:05:34.070Z,987.89
2018-03-03T01:06:14.392Z,987.84
2018-03-03T01:06:54.813Z,987.87
2018-03-03T01:07:35.175Z,987.85
2018-03-03T01:08:15.739Z,987.79
2018-03-03T01:08:56.077Z,987.86
2018-03-03T01:09:36.550Z,987.82
2018-03-03T01:10:16.791Z,987.81
2018-03-03T01:10:57.220Z,987.82
2018-03-03T01:11:37.587Z,987.83
2018-03-03T01:12:18.081Z,987.81
2018-03-03T01:12:58.392Z,987.85
2018-03-03T01:13:38.846Z,987.86
2018-03-03T01:14:19.162Z,987.86
2018-03-03T01:14:59.663Z,987.84
2018-03-03T01:15:39.968Z,987.84
2018-03-03T01:16:20.496Z,987.82
2018-03-03T01:17:00.745Z,987.81
2018-03-03T01:17:41.224Z,987.84
2018-03-03T01:18:21.614Z,987.87
2018-03-03T01:19:01.990Z,987.83
2018-03-03T01:19:42.437Z,987.82
2018-03-03T01:20:22.724Z,987.74
2018-03-03T01:21:03.259Z,987.75
2018-03-03T01:21:43.679Z,987.74
2018-03-03T01:22:24.217Z,987.76
2018-03-03T01:23:04.451Z,987.75
2018-03-03T01:23:44.994Z,987.74
2018-03-03T01:24:25.400Z,987.73
2018-03-03T01:25:05.758Z,987.73
2018-03-03T01:25:46.095Z,987.71
2018-03-03T01:26:26.958Z,987.72
2018-03-03T01:27:07.174Z,987.75
2018-03-03T01:27:47.648Z,987.72
2018-03-03T01:28:28.050Z,987.7
2018-03-03T01:29:08.414Z,987.69
2018-03-03T01:29:48.830Z,987.68
2018-03-03T01:30:29.172Z,987.64
2018-03-03T01:31:09.585Z,987.65
2018-03-03T01:31:49.995Z,987.62
2018-03-03T01:32:30.427Z,987.55
2018-03-03T01:33:10.858Z,987.6
2018-03-03T01:33:51.268Z,987.58
2018-03-03T01:34:31.697Z,987.58
2018-03-03T01:35:12.010Z,987.56
2018-03-03T01:35:52.772Z,987.58
2018-03-03T01:36:33.096Z,987.54
2018-03-03T01:37:13.520Z,987.59
2018-03-03T01:37:54.095Z,987.56
2018-03-03T01:38:34.270Z,987.57
2018-03-03T01:39:14.748Z,987.58
2018-03-03T01:39:55.187Z,987.56
2018-03-03T01:40:35.788Z,987.52
2018-03-03T01:41:16.177Z,987.6
2018-03-03T01:41:56.588Z,987.55
2018-03-03T01:42:36.932Z,987.56
2018-03-03T01:43:17.355Z,987.53
2018-03-03T01:43:57.918Z,987.55
2018-03-03T01:44:38.266Z,987.52
2018-03-03T01:45:18.751Z,987.56
2018-03-03T01:45:58.999Z,987.53
2018-03-03T01:46:39.429Z,987.53
2018-03-03T01:47:19.785Z,987.49
2018-03-03T01:48:00.183Z,987.53
2018-03-03T01:48:40.799Z,987.52
2018-03-03T01:49:21.072Z,987.48
2018-03-03T01:50:01.503Z,987.55
2018-03-03T01:50:41.978Z,987.5
2018-03-03T01:51:22.491Z,987.52
2018-03-03T01:52:02.913Z,987.48
2018-03-03T01:52:43.184Z,987.52
2018-03-03T01:53:23.641Z,987.48
2018-03-03T01:54:04.225Z,987.47
2018-03-03T01:54:44.403Z,987.5
2018-03-03T01:55:24.784Z,987.48
2018-03-03T01:56:05.287Z,987.53
2018-03-03T01:56:45.627Z,987.44
2018-03-03T01:57:26.019Z,987.46
2018-03-03T01:58:06.485Z,987.49
2018-03-03T01:58:47.042Z,987.45
2018-03-03T01:59:27.266Z,987.41
2018-03-03T02:00:08.349Z,987.45
2018-03-03T02:00:49.481Z,987.38
2018-03-03T02:01:30.341Z,987.42
2018-03-03T02:02:10.657Z,987.44
2018-03-03T02:02:50.993Z,987.44
2018-03-03T02:03:31.956Z,987.41
2018-03-03T02:04:12.293Z,987.4
2018-03-03T02:04:52.726Z,987.39
2018-03-03T02:05:33.189Z,987.39
2018-03-03T02:06:13.516Z,987.35
2018-03-03T02:06:54.313Z,987.34
2018-03-03T02:07:34.526Z,987.38
2018-03-03T02:08:15.101Z,987.31
2018-03-03T02:08:55.399Z,987.36
2018-03-03T02:09:36.379Z,987.32
2018-03-03T02:10:16.989Z,987.28
2018-03-03T02:10:57.517Z,987.31
2018-03-03T02:11:37.943Z,987.28
2018-03-03T02:12:18.532Z,987.29
2018-03-03T02:12:58.973Z,987.25
2018-03-03T02:13:40.100Z,987.27
2018-03-03T02:14:20.062Z,987.25
2018-03-03T02:15:00.515Z,987.21
2018-03-03T02:15:40.792Z,987.23
2018-03-03T02:16:21.344Z,987.19
2018-03-03T02:17:01.720Z,987.19
2018-03-03T02:17:42.032Z,987.21
2018-03-03T02:18:22.389Z,987.21
2018-03-03T02:19:02.809Z,987.21
2018-03-03T02:19:43.360Z,987.2
2018-03-03T02:20:23.634Z,987.18
2018-03-03T02:21:04.182Z,987.18
2018-03-03T02:21:44.756Z,987.17
2018-03-03T02:22:25.923Z,987.17
2018-03-03T02:23:06.273Z,987.19
2018-03-03T02:23:46.650Z,987.21
2018-03-03T02:24:27.118Z,987.17
2018-03-03T02:25:07.748Z,987.16
2018-03-03T02:25:47.919Z,987.17
2018-03-03T02:26:28.266Z,987.21
2018-03-03T02:27:08.649Z,987.21
2018-03-03T02:27:49.267Z,987.21
2018-03-03T02:28:29.628Z,987.15
2018-03-03T02:29:10.053Z,987.17
2018-03-03T02:29:50.462Z,987.19
2018-03-03T02:30:30.877Z,987.13
2018-03-03T02:31:11.348Z,987.13
2018-03-03T02:31:51.820Z,987.12
2018-03-03T02:32:32.246Z,987.08
2018-03-03T02:33:12.645Z,987.1
2018-03-03T02:33:53.083Z,987.13
2018-03-03T02:34:33.436Z,987.11
2018-03-03T02:35:13.709Z,987.1
2018-03-03T02:35:54.189Z,987.04
2018-03-03T02:36:34.871Z,987.02
2018-03-03T02:37:15.191Z,987.08
2018-03-03T02:37:55.717Z,987.01
2018-03-03T02:38:35.881Z,987.01
2018-03-03T02:39:16.297Z,987.01
2018-03-03T02:39:56.717Z,986.97
2018-03-03T02:40:37.255Z,986.93
2018-03-03T02:41:17.699Z,986.91
2018-03-03T02:41:58.447Z,986.89
2018-03-03T02:42:38.371Z,986.87
2018-03-03T02:43:18.768Z,986.86
2018-03-03T02:43:59.258Z,986.82
2018-03-03T02:44:39.739Z,986.75
2018-03-03T02:45:20.192Z,986.77
2018-03-03T02:46:00.472Z,986.7
2018-03-03T02:46:40.951Z,986.72
2018-03-03T02:47:21.663Z,986.7
2018-03-03T02:48:02.324Z,986.71
2018-03-03T02:48:43.061Z,986.71
2018-03-03T02:49:23.195Z,986.65
2018-03-03T02:50:03.595Z,986.68
2018-03-03T02:50:44.966Z,986.64
2018-03-03T02:51:25.568Z,986.65
2018-03-03T02:52:05.898Z,986.67
2018-03-03T02:52:46.282Z,986.61
2018-03-03T02:53:26.693Z,986.65
2018-03-03T02:54:07.051Z,986.67
2018-03-03T02:54:47.602Z,986.65
2018-03-03T02:55:27.870Z,986.66
2018-03-03T02:56:08.282Z,986.63
2018-03-03T02:56:48.735Z,986.67
2018-03-03T02:57:29.052Z,986.62
2018-03-03T02:58:09.465Z,986.59
2018-03-03T02:58:49.843Z,986.58
2018-03-03T02:59:30.362Z,986.62
2018-03-03T03:00:10.679Z,986.63
2018-03-03T03:00:51.038Z,986.58
2018-03-03T03:01:31.485Z,986.57
2018-03-03T03:02:11.925Z,986.62
2018-03-03T03:02:52.323Z,986.6
2018-03-03T03:03:32.657Z,986.62
2018-03-03T03:04:13.109Z,986.61
2018-03-03T03:04:53.575Z,986.58
2018-03-03T03:05:33.801Z,986.62
2018-03-03T03:06:14.245Z,986.61
2018-03-03T03:06:54.679Z,986.63
2018-03-03T03:07:35.053Z,986.62
2018-03-03T03:08:15.536Z,986.62
2018-03-03T03:08:56.152Z,986.62
2018-03-03T03:09:36.343Z,986.6
2018-03-03T03:10:16.731Z,986.59
2018-03-03T03:10:57.303Z,986.64
2018-03-03T03:11:37.818Z,986.58
2018-03-03T03:12:18.179Z,986.6
2018-03-03T03:12:58.509Z,986.51
2018-03-03T03:13:38.900Z,986.56
2018-03-03T03:14:19.235Z,986.59
2018-03-03T03:14:59.743Z,986.6
2018-03-03T03:15:40.012Z,986.57
2018-03-03T03:16:20.727Z,986.57
2018-03-03T03:17:01.091Z,986.57
2018-03-03T03:17:41.416Z,986.56
2018-03-03T03:18:22.097Z,986.61
2018-03-03T03:19:02.495Z,986.64
2018-03-03T03:19:42.793Z,986.59
2018-03-03T03:20:23.539Z,986.62
2018-03-03T03:21:03.919Z,986.6
2018-03-03T03:21:44.391Z,986.63
2018-03-03T03:22:24.708Z,986.61
2018-03-03T03:23:05.155Z,986.6
2018-03-03T03:23:45.506Z,986.64
2018-03-03T03:24:25.867Z,986.64
2018-03-03T03:25:06.469Z,986.67
2018-03-03T03:25:46.760Z,986.63
2018-03-03T03:26:27.415Z,986.59
2018-03-03T03:27:07.915Z,986.57
2018-03-03T03:27:48.395Z,986.58
2018-03-03T03:28:28.679Z,986.57
2018-03-03T03:29:09.022Z,986.6
2018-03-03T03:29:49.430Z,986.57
2018-03-03T03:30:30.343Z,986.59
2018-03-03T03:31:10.359Z,986.54
2018-03-03T03:31:50.586Z,986.57
2018-03-03T03:32:31.020Z,986.63
2018-03-03T03:33:11.411Z,986.58
2018-03-03T03:33:51.843Z,986.6
2018-03-03T03:34:32.206Z,986.55
2018-03-03T03:35:12.698Z,986.56
2018-03-03T03:35:52.962Z,986.58
2018-03-03T03:36:33.420Z,986.6
2018-03-03T03:37:13.946Z,986.56
2018-03-03T03:37:54.309Z,986.52
2018-03-03T03:38:34.777Z,986.5
2018-03-03T03:39:15.193Z,986.5
2018-03-03T03:39:55.829Z,986.54
2018-03-03T03:40:36.293Z,986.51
2018-03-03T03:41:16.588Z,986.54
2018-03-03T03:41:57.075Z,986.47
2018-03-03T03:42:37.524Z,986.49
2018-03-03T03:43:17.864Z,986.43
2018-03-03T03:43:58.327Z,986.45
2018-03-03T03:44:38.837Z,986.42
2018-03-03T03:45:19.180Z,986.43
2018-03-03T03:45:59.589Z,986.42
2018-03-03T03:46:40.051Z,986.41
2018-03-03T03:47:20.763Z,986.36
2018-03-03T03:48:01.396Z,986.39
2018-03-03T03:48:41.543Z,986.39
2018-03-03T03:49:22.119Z,986.4
2018-03-03T03:50:02.644Z,986.33
2018-03-03T03:50:42.838Z,986.34
2018-03-03T03:51:23.466Z,986.32
2018-03-03T03:52:03.715Z,986.3
2018-03-03T03:52:44.004Z,986.3
2018-03-03T03:53:24.578Z,986.26
2018-03-03T03:54:05.080Z,986.3
2018-03-03T03:54:45.552Z,986.28
2018-03-03T03:55:25.850Z,986.24
2018-03-03T03:56:06.241Z,986.25
2018-03-03T03:56:47.367Z,986.24
2018-03-03T03:57:27.762Z,986.24
2018-03-03T03:58:08.240Z,986.22
2018-03-03T03:58:48.512Z,986.2
2018-03-03T03:59:28.921Z,986.2
2018-03-03T04:00:09.342Z,986.22
2018-03-03T04:00:49.696Z,986.28
2018-03-03T04:01:30.180Z,986.3
2018-03-03T04:02:10.496Z,986.25
2018-03-03T04:02:51.033Z,986.28
2018-03-03T04:03:31.574Z,986.25
2018-03-03T04:04:11.852Z,986.29
2018-03-03T04:04:52.282Z,986.33
2018-03-03T04:05:32.629Z,986.24
2018-03-03T04:06:13.128Z,986.31
2018-03-03T04:06:53.627Z,986.24
2018-03-03T04:07:33.906Z,986.25
2018-03-03T04:47:32.608Z,986.04
2018-03-03T04:48:22.043Z,986.03
2018-03-03T04:49:24.273Z,986
2018-03-03T04:50:07.236Z,986.03
2018-03-03T04:50:54.518Z,986
2018-03-03T04:51:34.878Z,985.99
2018-03-03T04:52:32.347Z,985.94
2018-03-03T04:54:46.671Z,986.04
2018-03-03T05:00:35.944Z,985.95
2018-03-03T05:03:55.530Z,985.96
2018-03-03T05:04:35.808Z,985.9
2018-03-03T05:05:16.110Z,985.89
2018-03-03T05:05:56.575Z,985.83
2018-03-03T05:06:36.935Z,985.83
2018-03-03T05:07:17.337Z,985.86
2018-03-03T05:07:57.698Z,985.78
2018-03-03T05:08:38.088Z,985.81
2018-03-03T05:09:18.515Z,985.84
2018-03-03T05:09:58.968Z,985.83
2018-03-03T05:10:39.235Z,985.8
2018-03-03T05:11:19.615Z,985.83
2018-03-03T05:12:00.035Z,985.82
2018-03-03T05:12:41.433Z,985.85
2018-03-03T05:13:21.700Z,985.84
2018-03-03T05:14:02.054Z,985.87
2018-03-03T05:14:42.463Z,985.91
2018-03-03T05:15:22.987Z,985.88
2018-03-03T05:16:03.317Z,985.89
2018-03-03T05:16:43.716Z,985.88
2018-03-03T05:17:24.355Z,985.87
2018-03-03T05:18:04.835Z,985.9
2018-03-03T05:18:45.361Z,985.91
2018-03-03T05:19:25.838Z,985.9
2018-03-03T05:20:06.343Z,985.88
2018-03-03T05:20:46.559Z,985.91
2018-03-03T05:21:26.960Z,985.93
2018-03-03T05:22:07.323Z,985.89
2018-03-03T05:22:47.860Z,985.89
2018-03-03T05:23:28.194Z,985.92
2018-03-03T05:24:08.651Z,986
2018-03-03T05:24:49.236Z,985.91
2018-03-03T05:25:29.533Z,985.9
2018-03-03T05:26:09.867Z,985.95
2018-03-03T05:26:50.202Z,985.92
2018-03-03T05:27:30.577Z,985.89
2018-03-03T05:28:11.066Z,985.87
2018-03-03T05:28:51.580Z,985.85
2018-03-03T05:29:31.912Z,985.87
2018-03-03T05:30:12.562Z,985.86
2018-03-03T05:30:52.871Z,985.85
2018-03-03T05:31:33.231Z,985.87
2018-03-03T05:32:13.612Z,985.83
2018-03-03T05:32:54.057Z,985.87
2018-03-03T05:33:34.406Z,985.88
2018-03-03T05:34:14.872Z,985.84
2018-03-03T05:34:55.228Z,985.82
2018-03-03T05:35:35.633Z,985.83
2018-03-03T05:36:16.028Z,985.9
2018-03-03T05:36:56.370Z,985.83
2018-03-03T05:37:36.804Z,985.84
2018-03-03T05:38:17.272Z,985.92
2018-03-03T05:38:57.612Z,985.9
2018-03-03T05:39:38.105Z,985.85
2018-03-03T05:40:18.410Z,985.83
2018-03-03T05:40:58.928Z,985.87
2018-03-03T05:41:39.194Z,985.79
2018-03-03T05:42:19.627Z,985.83
2018-03-03T05:43:00.130Z,985.9
2018-03-03T05:43:40.404Z,985.92
2018-03-03T05:44:20.794Z,985.84
2018-03-03T05:45:01.312Z,985.83
2018-03-03T05:45:41.731Z,985.85
2018-03-03T05:46:21.973Z,985.79
2018-03-03T05:47:02.341Z,985.85
2018-03-03T05:47:42.756Z,985.89
2018-03-03T05:48:23.125Z,985.89
2018-03-03T05:49:03.528Z,985.85
2018-03-03T05:49:43.984Z,985.84
2018-03-03T05:50:24.408Z,985.82
2018-03-03T05:51:04.738Z,985.82
2018-03-03T05:51:45.230Z,985.9
2018-03-03T05:52:25.544Z,985.83
2018-03-03T05:53:05.987Z,985.87
2018-03-03T05:53:46.312Z,985.85
2018-03-03T05:54:26.834Z,985.88
2018-03-03T05:55:07.099Z,985.9
2018-03-03T05:55:47.546Z,985.85
2018-03-03T05:56:27.923Z,985.91
2018-03-03T05:57:08.330Z,985.86
2018-03-03T05:57:48.685Z,985.8
2018-03-03T05:58:29.107Z,985.86
2018-03-03T05:59:09.618Z,985.79
2018-03-03T05:59:49.881Z,985.9
2018-03-03T06:00:30.276Z,985.86
2018-03-03T06:01:10.681Z,985.84
2018-03-03T06:01:51.101Z,985.91
2018-03-03T06:02:31.513Z,985.89
2018-03-03T06:03:12.785Z,985.97
2018-03-03T06:03:53.181Z,985.92
2018-03-03T06:04:33.571Z,985.87
2018-03-03T06:05:13.940Z,985.88
2018-03-03T06:05:54.758Z,985.87
2018-03-03T06:06:35.111Z,985.88
2018-03-03T06:07:15.332Z,985.84
2018-03-03T06:07:55.816Z,985.89
2018-03-03T06:08:36.174Z,985.89
2018-03-03T06:09:16.646Z,985.9
2018-03-03T06:09:57.080Z,985.86
2018-03-03T06:10:37.548Z,985.85
2018-03-03T06:11:17.844Z,985.83
2018-03-03T06:11:58.362Z,985.89
2018-03-03T06:12:38.721Z,985.89
2018-03-03T06:13:19.088Z,985.93
2018-03-03T06:13:59.500Z,985.9
2018-03-03T06:14:40.105Z,985.94
2018-03-03T06:15:20.523Z,985.9
2018-03-03T06:16:00.904Z,985.86
2018-03-03T06:16:41.327Z,985.88
2018-03-03T06:17:21.688Z,985.89
2018-03-03T06:18:02.222Z,985.89
2018-03-03T06:18:42.474Z,985.88
2018-03-03T06:19:22.865Z,985.9
2018-03-03T06:20:03.363Z,985.89
2018-03-03T06:20:43.607Z,985.89
2018-03-03T06:21:24.147Z,985.87
2018-03-03T06:22:04.530Z,985.86
2018-03-03T06:22:44.877Z,985.86
2018-03-03T06:23:25.231Z,985.88
2018-03-03T06:24:05.584Z,985.84
2018-03-03T06:24:46.149Z,985.88
2018-03-03T06:25:26.411Z,985.87
2018-03-03T06:26:06.773Z,985.92
2018-03-03T06:26:47.210Z,985.91
2018-03-03T06:27:27.612Z,985.91
2018-03-03T06:28:08.002Z,985.93
2018-03-03T06:28:48.409Z,985.96
2018-03-03T06:29:28.852Z,985.92
2018-03-03T06:30:09.168Z,985.91
2018-03-03T06:30:49.567Z,985.91
2018-03-03T06:31:30.175Z,985.92
2018-03-03T06:32:10.380Z,985.87
2018-03-03T06:32:50.788Z,985.88
2018-03-03T06:33:31.162Z,985.84
2018-03-03T06:34:11.525Z,985.94
2018-03-03T06:34:52.768Z,985.81
2018-03-03T06:35:33.096Z,985.85
2018-03-03T06:36:13.482Z,985.9
2018-03-03T06:36:53.872Z,985.88
2018-03-03T06:37:34.309Z,985.9
2018-03-03T06:38:14.609Z,985.85
2018-03-03T06:38:55.084Z,985.94
2018-03-03T06:39:35.521Z,985.87
2018-03-03T06:40:15.847Z,985.89
2018-03-03T06:40:56.224Z,985.93
2018-03-03T06:41:36.595Z,985.9
2018-03-03T06:42:16.970Z,985.88
2018-03-03T06:42:57.417Z,985.94
2018-03-03T06:43:37.806Z,985.86
2018-03-03T06:44:18.214Z,985.86
2018-03-03T06:44:58.616Z,985.93
2018-03-03T06:45:38.969Z,985.88
2018-03-03T06:46:19.538Z,985.89
2018-03-03T06:46:59.699Z,985.97
2018-03-03T06:47:40.147Z,985.95
2018-03-03T06:48:21.344Z,985.99
2018-03-03T06:49:01.822Z,986.01
2018-03-03T06:49:42.128Z,986.03
2018-03-03T06:50:22.517Z,985.98
2018-03-03T06:51:02.941Z,985.96
2018-03-03T06:51:43.230Z,985.92
2018-03-03T06:52:23.618Z,985.98
2018-03-03T06:53:04.072Z,986.02
2018-03-03T06:53:44.447Z,985.98
2018-03-03T06:54:25.641Z,985.98
2018-03-03T06:55:06.256Z,986.03
2018-03-03T06:55:46.501Z,985.98
2018-03-03T06:56:26.923Z,986.04
2018-03-03T06:57:07.555Z,986.02
2018-03-03T06:57:47.803Z,986.04
2018-03-03T06:58:28.849Z,986.03
2018-03-03T06:59:09.482Z,986.05
2018-03-03T06:59:49.646Z,986.03
2018-03-03T07:00:30.226Z,986.08
2018-03-03T07:01:10.557Z,986.09
2018-03-03T07:01:50.923Z,986.05
2018-03-03T07:02:31.406Z,986.07
2018-03-03T07:03:11.675Z,986.14
2018-03-03T07:03:52.116Z,986.11
2018-03-03T07:04:32.464Z,986.13
2018-03-03T07:05:12.905Z,986.15
2018-03-03T07:05:53.394Z,986.13
2018-03-03T07:06:33.704Z,986.16
2018-03-03T07:07:14.075Z,986.18
2018-03-03T07:07:54.574Z,986.11
2018-03-03T07:08:35.070Z,986.06
2018-03-03T07:09:15.388Z,986.12
2018-03-03T07:09:55.779Z,986.11
2018-03-03T07:10:36.188Z,986.14
2018-03-03T07:11:16.573Z,986.12
2018-03-03T07:11:57.041Z,986.2
2018-03-03T07:12:37.684Z,986.11
2018-03-03T07:13:17.932Z,986.18
2018-03-03T07:13:58.313Z,986.2
2018-03-03T07:14:38.663Z,986.23
2018-03-03T07:15:19.071Z,986.25
2018-03-03T07:15:59.532Z,986.19
2018-03-03T07:16:39.823Z,986.19
2018-03-03T07:17:20.407Z,986.16
2018-03-03T07:18:00.690Z,986.2
2018-03-03T07:18:41.077Z,986.16
2018-03-03T07:19:21.587Z,986.16
2018-03-03T07:20:01.948Z,986.13
2018-03-03T07:20:42.290Z,986.18
2018-03-03T07:21:22.661Z,986.25
2018-03-03T07:22:03.168Z,986.16
2018-03-03T07:22:43.422Z,986.23
2018-03-03T07:23:23.744Z,986.17
2018-03-03T07:24:04.182Z,986.19
2018-03-03T07:24:44.611Z,986.21
2018-03-03T07:25:25.018Z,986.18
2018-03-03T07:26:05.340Z,986.18
2018-03-03T07:26:45.740Z,986.22
2018-03-03T07:27:26.183Z,986.18
2018-03-03T07:28:06.589Z,986.22
2018-03-03T07:28:46.949Z,986.24
2018-03-03T07:29:27.377Z,986.2
2018-03-03T07:30:07.798Z,986.2
2018-03-03T07:30:48.170Z,986.24
2018-03-03T07:31:28.599Z,986.19
2018-03-03T07:32:09.847Z,986.26
2018-03-03T07:32:50.772Z,986.25
2018-03-03T07:33:31.305Z,986.27
2018-03-03T07:34:11.609Z,986.16
2018-03-03T07:34:52.080Z,986.19
2018-03-03T07:35:32.390Z,986.2
2018-03-03T07:36:12.720Z,986.2
2018-03-03T07:36:53.162Z,986.22
2018-03-03T07:37:33.542Z,986.2
2018-03-03T07:38:14.000Z,986.2
2018-03-03T07:38:54.523Z,986.23
2018-03-03T07:39:34.811Z,986.25
2018-03-03T07:40:15.298Z,986.21
2018-03-03T07:40:55.815Z,986.2
2018-03-03T07:41:36.238Z,986.23
2018-03-03T07:42:16.670Z,986.29
2018-03-03T07:42:57.047Z,986.24
2018-03-03T07:43:37.492Z,986.22
2018-03-03T07:44:17.890Z,986.19
2018-03-03T07:44:58.203Z,986.3
2018-03-03T07:45:38.963Z,986.24
2018-03-03T07:46:19.216Z,986.25
2018-03-03T07:46:59.613Z,986.35
2018-03-03T07:47:40.014Z,986.29
2018-03-03T07:48:21.299Z,986.22
2018-03-03T07:49:01.714Z,986.26
2018-03-03T07:49:42.885Z,986.27
2018-03-03T07:50:23.201Z,986.26
2018-03-03T07:51:03.548Z,986.28
2018-03-03T07:51:43.994Z,986.29
2018-03-03T07:52:24.345Z,986.29
2018-03-03T07:53:04.745Z,986.26
2018-03-03T07:53:45.154Z,986.28
2018-03-03T07:54:25.601Z,986.29
2018-03-03T07:55:06.009Z,986.28
2018-03-03T07:55:46.379Z,986.28
2018-03-03T07:56:26.806Z,986.27
2018-03-03T07:57:07.157Z,986.3
2018-03-03T07:57:47.564Z,986.32
2018-03-03T07:58:27.845Z,986.26
2018-03-03T07:59:08.309Z,986.29
2018-03-03T07:59:48.676Z,986.33
2018-03-03T08:00:29.198Z,986.29
2018-03-03T08:01:09.470Z,986.24
2018-03-03T08:01:49.922Z,986.27
2018-03-03T08:02:30.329Z,986.28
2018-03-03T08:03:10.676Z,986.31
2018-03-03T08:03:51.252Z,986.26
2018-03-03T08:04:31.554Z,986.28
2018-03-03T08:05:11.930Z,986.29
2018-03-03T08:05:52.381Z,986.22
2018-03-03T08:06:32.705Z,986.27
2018-03-03T08:07:13.164Z,986.18
2018-03-03T08:07:53.487Z,986.15
2018-03-03T08:08:33.853Z,986.27
2018-03-03T08:09:14.326Z,986.25
2018-03-03T08:09:54.746Z,986.26
2018-03-03T08:10:35.090Z,986.27
2018-03-03T08:11:15.474Z,986.27
2018-03-03T08:11:55.884Z,986.24
2018-03-03T08:12:36.303Z,986.23
2018-03-03T08:13:16.726Z,986.21
2018-03-03T08:13:57.095Z,986.22
2018-03-03T08:14:37.447Z,986.22
2018-03-03T08:15:17.818Z,986.23
2018-03-03T08:15:58.330Z,986.25
2018-03-03T08:16:38.666Z,986.2
2018-03-03T08:17:19.053Z,986.22
2018-03-03T08:17:59.528Z,986.17
2018-03-03T08:18:39.893Z,986.24
2018-03-03T08:19:20.283Z,986.31
2018-03-03T08:20:00.730Z,986.31
2018-03-03T08:20:41.094Z,986.32
2018-03-03T08:21:21.506Z,986.33
2018-03-03T08:22:01.992Z,986.32
2018-03-03T08:22:42.361Z,986.32
2018-03-03T08:23:22.784Z,986.3
2018-03-03T08:24:03.166Z,986.32
2018-03-03T08:24:44.314Z,986.32
2018-03-03T08:25:24.673Z,986.32
2018-03-03T08:26:05.081Z,986.27
2018-03-03T08:26:45.569Z,986.3
2018-03-03T08:29:00.713Z,986.35
2018-03-03T08:29:41.764Z,986.33
2018-03-03T08:30:22.058Z,986.33
2018-03-03T08:31:02.391Z,986.35
2018-03-03T08:31:43.137Z,986.37
2018-03-03T08:32:23.422Z,986.37
2018-03-03T08:33:03.878Z,986.38
2018-03-03T08:33:44.180Z,986.47
2018-03-03T08:34:24.575Z,986.39
2018-03-03T08:35:05.083Z,986.4
2018-03-03T08:35:45.368Z,986.48
2018-03-03T08:39:56.423Z,986.51
2018-03-03T08:40:36.816Z,986.56
2018-03-03T08:41:47.088Z,986.54
2018-03-03T08:44:04.504Z,986.5
2018-03-03T08:44:57.076Z,986.53
2018-03-03T08:45:36.466Z,986.54
2018-03-03T08:46:17.303Z,986.51
2018-03-03T08:46:57.990Z,986.56
2018-03-03T08:47:38.213Z,986.54
2018-03-03T08:48:18.694Z,986.55
2018-03-03T08:48:59.288Z,986.6
2018-03-03T08:49:39.644Z,986.59
2018-03-03T08:50:20.211Z,986.61
2018-03-03T08:51:00.613Z,986.56
2018-03-03T08:51:41.069Z,986.57
2018-03-03T08:52:21.478Z,986.65
2018-03-03T08:53:01.876Z,986.7
2018-03-03T08:53:42.308Z,986.62
2018-03-03T08:54:22.844Z,986.58
2018-03-03T08:55:03.663Z,986.59
2018-03-03T08:55:44.043Z,986.6
2018-03-03T08:56:24.476Z,986.56
2018-03-03T08:57:05.022Z,986.58
2018-03-03T08:57:45.326Z,986.59
2018-03-03T08:58:25.931Z,986.6
2018-03-03T08:59:06.594Z,986.66
2018-03-03T08:59:47.034Z,986.63
2018-03-03T09:00:27.472Z,986.57
2018-03-03T09:01:07.821Z,986.64
2018-03-03T09:01:48.261Z,986.65
2018-03-03T09:02:29.350Z,986.61
2018-03-03T09:03:09.761Z,986.62
2018-03-03T09:03:50.203Z,986.64
2018-03-03T09:04:31.178Z,986.59
2018-03-03T09:05:11.526Z,986.55
2018-03-03T09:05:52.135Z,986.58
2018-03-03T09:06:32.974Z,986.59
2018-03-03T09:07:13.420Z,986.63
2018-03-03T09:07:54.413Z,986.62
2018-03-03T09:08:35.354Z,986.59
2018-03-03T09:09:15.806Z,986.63
2018-03-03T09:09:56.597Z,986.65
2018-03-03T09:10:37.162Z,986.54
2018-03-03T09:11:17.558Z,986.53
2018-03-03T09:11:58.192Z,986.56
2018-03-03T09:12:39.057Z,986.54
2018-03-03T09:13:21.714Z,986.65
2018-03-03T09:14:01.887Z,986.67
2018-03-03T09:14:42.376Z,986.67
2018-03-03T09:15:23.520Z,986.61
2018-03-03T09:16:04.215Z,986.59
2018-03-03T09:18:01.184Z,986.6
2018-03-03T09:18:41.367Z,986.67
2018-03-03T09:19:21.721Z,986.68
2018-03-03T09:20:02.173Z,986.7
2018-03-03T09:20:42.580Z,986.66
2018-03-03T09:21:22.995Z,986.66
2018-03-03T09:22:03.371Z,986.76
2018-03-03T09:22:43.902Z,986.64
2018-03-03T09:23:24.264Z,986.66
2018-03-03T09:24:04.816Z,986.77
2018-03-03T09:24:45.121Z,986.71